createdAt,value
2019-03-29T00:00:54.819Z,53.31
2019-03-29T00:03:20.774Z,53.33
2019-03-29T00:05:46.632Z,53.36
2019-03-29T00:08:12.712Z,53.34
2019-03-29T00:10:38.577Z,53.27
2019-03-29T00:13:04.660Z,53.30
2019-03-29T00:15:30.695Z,53.41
2019-03-29T00:17:56.641Z,53.47
2019-03-29T00:20:22.529Z,53.50
2019-03-29T00:22:49.010Z,53.61
2019-03-29T00:25:14.871Z,53.58
2019-03-29T00:27:40.830Z,53.55
2019-03-29T00:30:07.060Z,53.56
2019-03-29T00:32:32.942Z,53.58
2019-03-29T00:34:58.847Z,53.64
2019-03-29T00:37:24.808Z,53.58
2019-03-29T00:39:50.638Z,53.56
2019-03-29T00:42:17.131Z,53.54
2019-03-29T00:44:43.383Z,53.51
2019-03-29T00:47:09.284Z,53.50
2019-03-29T00:49:35.233Z,53.42
2019-03-29T00:52:01.256Z,53.40
2019-03-29T00:54:28.036Z,53.35
2019-03-29T00:56:54.122Z,53.33
2019-03-29T00:59:20.190Z,53.28
2019-03-29T01:01:46.952Z,53.27
2019-03-29T01:04:12.821Z,53.28
2019-03-29T01:06:39.256Z,53.21
2019-03-29T01:09:05.503Z,53.15
2019-03-29T01:11:31.456Z,53.15
2019-03-29T01:13:57.448Z,53.15
2019-03-29T01:16:23.298Z,53.14
2019-03-29T01:18:49.148Z,53.17
2019-03-29T01:21:15.173Z,53.15
2019-03-29T01:23:41.137Z,53.13
2019-03-29T01:26:06.987Z,53.13
2019-03-29T01:28:33.002Z,53.09
2019-03-29T01:30:58.871Z,53.08
2019-03-29T01:33:25.059Z,53.09
2019-03-29T01:35:51.208Z,53.06
2019-03-29T01:38:22.013Z,52.99
2019-03-29T01:40:44.776Z,52.98
2019-03-29T01:43:10.859Z,53.01
2019-03-29T01:45:36.965Z,52.96
2019-03-29T01:48:02.994Z,52.95
2019-03-29T01:50:28.932Z,52.98
2019-03-29T01:52:54.803Z,53.00
2019-03-29T01:55:20.801Z,53.02
2019-03-29T01:57:46.910Z,53.02
2019-03-29T02:00:14.695Z,52.88
2019-03-29T02:02:40.727Z,52.89
2019-03-29T02:05:07.047Z,52.91
2019-03-29T02:07:33.004Z,52.89
2019-03-29T02:09:58.877Z,52.92
2019-03-29T02:12:24.886Z,53.00
2019-03-29T02:14:50.713Z,53.04
2019-03-29T02:17:16.578Z,53.11
2019-03-29T02:19:42.693Z,53.09
2019-03-29T02:22:09.103Z,53.10
2019-03-29T02:24:35.205Z,53.07
2019-03-29T02:27:01.256Z,53.13
2019-03-29T02:29:27.095Z,53.19
2019-03-29T02:31:53.080Z,53.17
2019-03-29T02:34:19.036Z,53.17
2019-03-29T02:36:44.874Z,53.21
2019-03-29T02:39:10.753Z,53.20
2019-03-29T02:41:36.819Z,53.27
2019-03-29T02:44:02.768Z,53.33
2019-03-29T02:46:28.777Z,53.28
2019-03-29T02:48:54.748Z,53.32
2019-03-29T02:51:20.637Z,53.34
2019-03-29T02:53:46.537Z,53.33
2019-03-29T02:56:12.640Z,53.31
2019-03-29T02:58:38.578Z,53.31
2019-03-29T03:01:04.472Z,53.33
2019-03-29T03:03:30.417Z,53.29
2019-03-29T03:05:56.263Z,53.24
2019-03-29T03:08:22.163Z,53.18
2019-03-29T03:10:48.288Z,53.07
2019-03-29T03:13:14.175Z,53.04
2019-03-29T03:15:40.093Z,52.96
2019-03-29T03:18:06.209Z,52.89
2019-03-29T03:20:32.063Z,52.71
2019-03-29T03:22:57.935Z,52.63
2019-03-29T03:25:23.927Z,52.57
2019-03-29T03:27:49.765Z,52.56
2019-03-29T03:30:15.722Z,52.49
2019-03-29T03:32:41.805Z,52.42
2019-03-29T03:35:08.025Z,52.29
2019-03-29T03:37:33.946Z,52.21
2019-03-29T03:39:59.917Z,52.21
2019-03-29T03:42:25.881Z,52.15
2019-03-29T03:44:51.736Z,52.09
2019-03-29T03:47:17.835Z,51.99
2019-03-29T03:49:43.830Z,51.90
2019-03-29T03:52:09.720Z,51.97
2019-03-29T03:54:36.158Z,51.89
2019-03-29T03:57:01.974Z,51.92
2019-03-29T03:59:27.854Z,51.97
2019-03-29T04:01:53.972Z,51.97
2019-03-29T04:04:19.857Z,51.90
2019-03-29T04:06:45.726Z,51.98
2019-03-29T04:09:11.776Z,52.00
2019-03-29T04:11:37.692Z,51.97
2019-03-29T04:14:03.686Z,51.96
2019-03-29T04:16:29.652Z,51.93
2019-03-29T04:18:55.648Z,51.96
2019-03-29T04:21:21.601Z,51.94
2019-03-29T04:23:49.055Z,51.92
2019-03-29T04:26:14.909Z,51.92
2019-03-29T04:28:40.783Z,51.85
2019-03-29T04:31:06.975Z,51.86
2019-03-29T04:33:32.831Z,51.86
2019-03-29T04:35:58.689Z,51.78
2019-03-29T04:38:24.724Z,51.75
2019-03-29T04:40:50.669Z,51.69
2019-03-29T04:43:16.529Z,51.64
2019-03-29T04:45:42.543Z,51.69
2019-03-29T04:48:08.384Z,51.72
2019-03-29T04:50:34.394Z,51.72
2019-03-29T04:53:00.486Z,51.67
2019-03-29T04:55:26.316Z,51.68
2019-03-29T04:57:52.199Z,51.66
2019-03-29T05:00:18.347Z,51.63
2019-03-29T05:02:44.342Z,51.57
2019-03-29T05:05:10.298Z,51.56
2019-03-29T05:07:37.133Z,51.54
2019-03-29T05:10:19.917Z,51.54
2019-03-29T05:12:34.147Z,51.50
2019-03-29T05:15:00.350Z,51.48
2019-03-29T05:17:26.169Z,51.38
2019-03-29T05:19:52.038Z,51.45
2019-03-29T05:22:18.160Z,51.38
2019-03-29T05:24:44.065Z,51.30
2019-03-29T05:27:10.036Z,51.28
2019-03-29T05:29:36.073Z,51.27
2019-03-29T05:32:01.941Z,51.29
2019-03-29T05:34:27.823Z,51.25
2019-03-29T05:36:54.001Z,51.25
2019-03-29T05:39:19.853Z,51.27
2019-03-29T05:41:45.709Z,51.26
2019-03-29T05:44:12.041Z,51.29
2019-03-29T05:46:37.898Z,51.29
2019-03-29T05:49:03.767Z,51.26
2019-03-29T05:51:29.908Z,51.31
2019-03-29T05:53:55.780Z,51.27
2019-03-29T05:56:21.783Z,51.28
2019-03-29T05:58:47.818Z,51.26
2019-03-29T06:01:13.680Z,51.31
2019-03-29T06:03:39.578Z,51.27
2019-03-29T06:06:05.599Z,51.17
2019-03-29T06:08:31.475Z,51.23
2019-03-29T06:10:57.520Z,51.28
2019-03-29T06:13:23.590Z,51.27
2019-03-29T06:15:51.652Z,51.22
2019-03-29T06:18:17.513Z,51.27
2019-03-29T06:20:43.567Z,51.32
2019-03-29T06:23:09.474Z,51.31
2019-03-29T06:25:35.367Z,51.27
2019-03-29T06:28:01.457Z,51.29
2019-03-29T06:30:28.127Z,51.27
2019-03-29T06:32:54.108Z,51.29
2019-03-29T06:35:20.206Z,51.32
2019-03-29T06:37:46.339Z,51.32
2019-03-29T06:40:15.448Z,51.31
2019-03-29T06:42:41.480Z,51.31
2019-03-29T06:45:07.476Z,51.38
2019-03-29T06:47:33.341Z,51.37
2019-03-29T06:49:59.367Z,51.28
2019-03-29T06:52:25.263Z,51.27
2019-03-29T06:54:51.127Z,51.25
2019-03-29T06:57:17.109Z,51.24
2019-03-29T06:59:43.108Z,51.20
2019-03-29T07:02:09.089Z,51.17
2019-03-29T07:04:35.085Z,51.09
2019-03-29T07:07:00.973Z,51.06
2019-03-29T07:09:27.699Z,50.95
2019-03-29T07:11:53.743Z,50.86
2019-03-29T07:14:19.882Z,50.85
2019-03-29T07:16:45.860Z,50.87
2019-03-29T07:19:11.969Z,50.82
2019-03-29T07:21:37.875Z,50.80
2019-03-29T07:24:03.778Z,50.66
2019-03-29T07:26:29.842Z,50.65
2019-03-29T07:28:55.834Z,50.54
2019-03-29T07:31:21.899Z,50.49
2019-03-29T07:33:48.949Z,50.47
2019-03-29T07:36:14.839Z,50.40
2019-03-29T07:38:40.818Z,50.41
2019-03-29T07:41:07.058Z,50.48
2019-03-29T07:43:33.072Z,50.39
2019-03-29T07:45:59.009Z,50.52
2019-03-29T07:48:24.980Z,50.54
2019-03-29T07:50:50.867Z,50.63
2019-03-29T07:53:16.794Z,50.62
2019-03-29T07:55:42.927Z,50.66
2019-03-29T07:58:08.798Z,50.67
2019-03-29T08:00:34.655Z,50.70
2019-03-29T08:03:00.582Z,50.74
2019-03-29T08:05:26.870Z,50.69
2019-03-29T08:07:52.844Z,50.73
2019-03-29T08:10:27.334Z,50.73
2019-03-29T08:12:46.705Z,50.73
2019-03-29T08:15:12.668Z,50.69
2019-03-29T08:17:38.729Z,50.62
2019-03-29T08:20:36.420Z,50.64
2019-03-29T08:22:32.427Z,50.63
2019-03-29T08:24:59.369Z,50.58
2019-03-29T08:27:26.985Z,50.52
2019-03-29T08:29:52.770Z,50.47
2019-03-29T08:32:18.905Z,50.46
2019-03-29T08:34:44.805Z,50.43
2019-03-29T08:37:10.688Z,50.33
2019-03-29T08:39:39.507Z,50.28
2019-03-29T08:42:07.010Z,50.17
2019-03-29T08:44:32.882Z,50.07
2019-03-29T08:46:58.851Z,50.03
2019-03-29T08:49:24.694Z,49.88
2019-03-29T08:51:50.575Z,49.85
2019-03-29T08:54:16.719Z,49.66
2019-03-29T08:56:42.688Z,49.62
2019-03-29T08:59:08.573Z,49.57
2019-03-29T09:01:34.856Z,49.52
2019-03-29T09:04:05.405Z,49.43
2019-03-29T09:06:30.143Z,49.29
2019-03-29T09:08:56.577Z,49.28
2019-03-29T09:11:22.450Z,49.34
2019-03-29T09:13:48.402Z,49.41
2019-03-29T09:16:14.381Z,49.46
2019-03-29T09:18:40.346Z,49.55
2019-03-29T09:21:06.370Z,49.57
2019-03-29T09:23:32.385Z,49.59
2019-03-29T09:25:58.248Z,49.66
2019-03-29T09:28:26.010Z,49.74
2019-03-29T09:30:52.061Z,49.76
2019-03-29T09:33:17.910Z,49.83
2019-03-29T09:35:43.889Z,49.92
2019-03-29T09:38:09.896Z,50.04
2019-03-29T09:40:35.840Z,50.16
2019-03-29T09:43:09.001Z,50.19
2019-03-29T09:45:29.691Z,50.10
2019-03-29T09:47:56.069Z,50.07
2019-03-29T09:50:23.174Z,50.06
2019-03-29T09:52:51.376Z,50.10
2019-03-29T09:55:18.973Z,50.19
2019-03-29T09:57:44.837Z,50.21
2019-03-29T10:00:20.779Z,50.23
2019-03-29T10:02:38.855Z,50.40
2019-03-29T10:05:04.913Z,50.51
2019-03-29T10:07:31.116Z,50.50
2019-03-29T10:09:57.123Z,50.48
2019-03-29T10:12:23.102Z,50.60
2019-03-29T10:14:49.070Z,50.68
2019-03-29T10:17:15.005Z,50.74
2019-03-29T10:19:40.927Z,50.89
2019-03-29T10:22:07.060Z,50.77
2019-03-29T10:24:32.910Z,50.76
2019-03-29T10:26:58.831Z,50.66
2019-03-29T10:29:25.137Z,50.58
2019-03-29T10:31:51.001Z,50.43
2019-03-29T10:34:16.976Z,50.15
2019-03-29T10:36:43.427Z,49.99
2019-03-29T10:39:13.186Z,49.85
2019-03-29T10:41:39.187Z,49.66
2019-03-29T10:44:05.347Z,49.67
2019-03-29T10:46:31.315Z,49.77
2019-03-29T10:48:57.161Z,49.64
2019-03-29T10:51:23.132Z,49.57
2019-03-29T10:53:49.246Z,49.52
2019-03-29T10:56:15.131Z,49.34
2019-03-29T10:58:41.181Z,49.31
2019-03-29T11:01:07.237Z,49.37
2019-03-29T11:03:33.098Z,49.19
2019-03-29T11:05:59.340Z,48.90
2019-03-29T11:08:25.304Z,48.06
2019-03-29T11:10:51.179Z,48.42
2019-03-29T11:13:17.128Z,48.47
2019-03-29T11:15:43.126Z,48.18
2019-03-29T11:18:09.037Z,48.00
2019-03-29T11:20:35.154Z,48.16
2019-03-29T11:23:01.025Z,48.15
2019-03-29T11:25:26.918Z,48.09
2019-03-29T11:27:52.964Z,48.05
2019-03-29T11:30:18.834Z,47.82
2019-03-29T11:32:44.811Z,47.75
2019-03-29T11:35:10.941Z,47.37
2019-03-29T11:37:36.840Z,47.27
2019-03-29T11:40:04.627Z,47.17
2019-03-29T11:42:30.671Z,47.23
2019-03-29T11:44:56.524Z,47.33
2019-03-29T11:47:22.380Z,46.91
2019-03-29T11:49:52.730Z,46.80
2019-03-29T11:52:16.501Z,46.67
2019-03-29T11:54:42.465Z,46.65
2019-03-29T11:57:08.454Z,46.81
2019-03-29T11:59:34.468Z,46.59
2019-03-29T12:02:00.439Z,46.89
2019-03-29T12:04:26.942Z,46.86
2019-03-29T12:06:52.807Z,47.03
2019-03-29T12:09:18.668Z,46.68
2019-03-29T12:11:44.666Z,46.00
2019-03-29T12:14:10.617Z,45.88
2019-03-29T12:16:36.576Z,45.83
2019-03-29T12:19:02.899Z,45.21
2019-03-29T12:21:28.915Z,45.33
2019-03-29T12:23:54.764Z,45.38
2019-03-29T12:26:20.709Z,45.01
2019-03-29T12:28:46.652Z,44.84
2019-03-29T12:31:12.813Z,44.81
2019-03-29T12:33:38.748Z,44.33
2019-03-29T12:36:04.643Z,43.99
2019-03-29T12:38:30.496Z,43.60
2019-03-29T12:40:56.980Z,43.29
2019-03-29T12:43:22.991Z,43.31
2019-03-29T12:45:48.954Z,43.01
2019-03-29T12:48:15.050Z,43.12
2019-03-29T12:50:41.086Z,43.08
2019-03-29T12:53:07.074Z,42.84
2019-03-29T12:55:33.156Z,43.09
2019-03-29T12:57:59.004Z,42.00
2019-03-29T13:00:25.115Z,42.09
2019-03-29T13:02:51.044Z,42.17
2019-03-29T13:05:16.955Z,42.16
2019-03-29T13:07:42.847Z,41.98
2019-03-29T13:10:09.065Z,41.56
2019-03-29T13:12:35.062Z,41.77
2019-03-29T13:15:01.042Z,41.73
2019-03-29T13:17:28.584Z,41.71
2019-03-29T13:19:54.575Z,41.85
2019-03-29T13:22:20.743Z,41.81
2019-03-29T13:24:46.727Z,41.84
2019-03-29T13:27:12.782Z,41.41
2019-03-29T13:29:38.659Z,40.87
2019-03-29T13:32:04.738Z,40.79
2019-03-29T13:34:30.615Z,40.30
2019-03-29T13:36:56.450Z,40.08
2019-03-29T13:39:22.520Z,40.51
2019-03-29T13:41:48.426Z,40.11
2019-03-29T13:44:23.678Z,40.19
2019-03-29T13:46:42.233Z,39.76
2019-03-29T13:49:08.134Z,40.25
2019-03-29T13:51:34.040Z,40.35
2019-03-29T13:54:00.093Z,40.30
2019-03-29T13:56:26.075Z,40.21
2019-03-29T13:58:51.953Z,39.96
2019-03-29T14:01:17.933Z,39.68
2019-03-29T14:03:43.954Z,39.76
2019-03-29T14:06:09.947Z,39.88
2019-03-29T14:08:36.006Z,39.72
2019-03-29T14:11:01.902Z,39.73
2019-03-29T14:13:27.770Z,40.05
2019-03-29T14:15:53.825Z,40.05
2019-03-29T14:18:19.723Z,39.66
2019-03-29T14:20:45.591Z,39.83
2019-03-29T14:23:11.752Z,40.02
2019-03-29T14:25:37.779Z,40.26
2019-03-29T14:28:03.717Z,40.21
2019-03-29T14:30:29.875Z,40.38
2019-03-29T14:32:55.968Z,40.40
2019-03-29T14:35:21.864Z,40.04
2019-03-29T14:37:47.919Z,40.33
2019-03-29T14:40:14.005Z,40.28
2019-03-29T14:42:39.867Z,40.30
2019-03-29T14:45:06.758Z,40.42
2019-03-29T14:47:41.217Z,40.43
2019-03-29T14:50:00.500Z,40.53
2019-03-29T14:52:26.619Z,40.50
2019-03-29T14:54:52.472Z,40.61
2019-03-29T14:57:18.333Z,40.61
2019-03-29T14:59:44.363Z,40.63
2019-03-29T15:02:10.202Z,40.60
2019-03-29T15:04:36.186Z,40.71
2019-03-29T15:07:02.262Z,40.72
2019-03-29T15:09:28.216Z,40.72
2019-03-29T15:11:54.104Z,40.77
2019-03-29T15:14:23.070Z,40.95
2019-03-29T15:16:47.916Z,40.89
2019-03-29T15:19:13.821Z,40.33
2019-03-29T15:21:39.744Z,40.05
2019-03-29T15:24:05.596Z,40.22
2019-03-29T15:26:31.484Z,40.20
2019-03-29T15:28:57.564Z,39.80
2019-03-29T15:31:23.451Z,40.09
2019-03-29T15:33:49.317Z,40.21
2019-03-29T15:36:15.293Z,40.33
2019-03-29T15:38:41.148Z,40.38
2019-03-29T15:41:07.159Z,40.32
2019-03-29T15:43:33.263Z,40.50
2019-03-29T15:45:59.131Z,40.60
2019-03-29T15:48:25.012Z,40.20
2019-03-29T15:50:51.054Z,40.41
2019-03-29T15:53:16.877Z,40.50
2019-03-29T15:55:42.748Z,40.61
2019-03-29T15:58:08.805Z,40.30
2019-03-29T16:00:34.700Z,40.52
2019-03-29T16:03:00.556Z,40.58
2019-03-29T16:05:26.496Z,40.56
2019-03-29T16:07:52.494Z,40.67
2019-03-29T16:10:18.368Z,40.70
2019-03-29T16:12:44.329Z,40.82
2019-03-29T16:15:10.301Z,40.89
2019-03-29T16:17:36.172Z,40.83
2019-03-29T16:20:02.829Z,40.93
2019-03-29T16:22:29.539Z,40.84
2019-03-29T16:24:55.556Z,40.86
2019-03-29T16:27:24.841Z,40.97
2019-03-29T16:29:49.260Z,41.12
2019-03-29T16:32:15.276Z,41.08
2019-03-29T16:34:41.394Z,41.14
2019-03-29T16:37:07.275Z,41.02
2019-03-29T16:39:33.190Z,40.88
2019-03-29T16:41:59.326Z,41.03
2019-03-29T16:44:25.253Z,40.97
2019-03-29T16:46:51.312Z,40.85
2019-03-29T16:49:17.318Z,40.89
2019-03-29T16:51:43.290Z,41.04
2019-03-29T16:54:09.135Z,41.10
2019-03-29T16:56:35.312Z,41.24
2019-03-29T16:59:01.289Z,41.31
2019-03-29T17:01:27.163Z,41.43
2019-03-29T17:03:54.068Z,41.45
2019-03-29T17:06:19.971Z,41.31
2019-03-29T17:08:45.842Z,41.35
2019-03-29T17:11:11.990Z,41.47
2019-03-29T17:13:38.491Z,41.60
2019-03-29T17:16:04.553Z,41.78
2019-03-29T17:18:30.598Z,41.80
2019-03-29T17:20:56.527Z,41.85
2019-03-29T17:23:22.368Z,41.87
2019-03-29T17:25:48.385Z,41.99
2019-03-29T17:28:14.276Z,42.12
2019-03-29T17:30:43.171Z,42.12
2019-03-29T17:33:09.259Z,42.11
2019-03-29T17:35:35.299Z,42.19
2019-03-29T17:38:01.142Z,42.24
2019-03-29T17:40:27.107Z,42.20
2019-03-29T17:42:52.977Z,42.15
2019-03-29T17:45:18.814Z,42.26
2019-03-29T17:47:44.855Z,42.37
2019-03-29T17:50:10.979Z,42.45
2019-03-29T17:52:36.946Z,42.40
2019-03-29T17:55:04.287Z,42.46
2019-03-29T17:57:30.157Z,42.37
2019-03-29T17:59:56.119Z,42.53
2019-03-29T18:02:22.279Z,42.50
2019-03-29T18:04:48.267Z,42.56
2019-03-29T18:07:14.206Z,42.59
2019-03-29T18:09:40.361Z,42.61
2019-03-29T18:12:06.228Z,42.56
2019-03-29T18:14:32.120Z,42.68
2019-03-29T18:16:58.177Z,42.72
2019-03-29T18:19:24.175Z,42.70
2019-03-29T18:21:50.014Z,42.75
2019-03-29T18:24:15.971Z,42.81
2019-03-29T18:26:41.968Z,42.87
2019-03-29T18:29:07.838Z,42.84
2019-03-29T18:31:33.928Z,42.96
2019-03-29T18:34:00.065Z,43.01
2019-03-29T18:36:29.027Z,43.14
2019-03-29T18:38:54.957Z,43.06
2019-03-29T18:41:20.824Z,43.16
2019-03-29T18:43:48.588Z,43.29
2019-03-29T18:46:14.705Z,43.40
2019-03-29T18:48:40.600Z,43.51
2019-03-29T18:51:06.486Z,43.35
2019-03-29T18:53:32.682Z,43.50
2019-03-29T18:55:58.532Z,43.64
2019-03-29T18:58:24.393Z,43.74
2019-03-29T19:00:50.373Z,43.75
2019-03-29T19:03:16.251Z,43.80
2019-03-29T19:05:42.189Z,43.87
2019-03-29T19:08:08.564Z,43.89
2019-03-29T19:10:34.538Z,43.94
2019-03-29T19:13:00.385Z,43.97
2019-03-29T19:15:26.531Z,43.94
2019-03-29T19:17:52.873Z,43.95
2019-03-29T19:20:27.206Z,44.07
2019-03-29T19:22:48.495Z,44.15
2019-03-29T19:25:14.292Z,44.15
2019-03-29T19:27:40.129Z,44.26
2019-03-29T19:30:08.023Z,44.37
2019-03-29T19:32:33.884Z,44.45
2019-03-29T19:34:59.726Z,44.43
2019-03-29T19:37:25.778Z,44.52
2019-03-29T19:39:51.649Z,44.62
2019-03-29T19:42:17.627Z,44.70
2019-03-29T19:44:43.654Z,44.82
2019-03-29T19:47:13.837Z,44.82
2019-03-29T19:49:37.396Z,44.91
2019-03-29T19:52:03.379Z,45.00
2019-03-29T19:54:29.243Z,45.00
2019-03-29T19:56:55.065Z,45.01
2019-03-29T19:59:22.077Z,45.09
2019-03-29T20:01:47.937Z,45.10
2019-03-29T20:04:13.888Z,45.20
2019-03-29T20:06:40.128Z,45.20
2019-03-29T20:09:06.900Z,45.18
2019-03-29T20:11:32.775Z,45.20
2019-03-29T20:13:58.908Z,45.18
2019-03-29T20:16:24.815Z,45.22
2019-03-29T20:18:50.800Z,45.19
2019-03-29T20:21:16.720Z,45.21
2019-03-29T20:23:42.628Z,45.22
2019-03-29T20:26:08.619Z,45.18
2019-03-29T20:28:34.561Z,45.25
2019-03-29T20:31:00.459Z,45.28
2019-03-29T20:33:26.412Z,45.27
2019-03-29T20:35:52.528Z,45.36
2019-03-29T20:38:18.523Z,45.25
2019-03-29T20:40:44.413Z,45.26
2019-03-29T20:43:10.477Z,45.54
2019-03-29T20:45:36.332Z,45.62
2019-03-29T20:48:02.325Z,45.72
2019-03-29T20:50:28.393Z,45.79
2019-03-29T20:52:54.387Z,45.92
2019-03-29T20:55:20.372Z,45.93
2019-03-29T20:57:46.332Z,45.93
2019-03-29T21:00:12.488Z,46.01
2019-03-29T21:02:38.376Z,45.93
2019-03-29T21:05:04.933Z,46.04
2019-03-29T21:07:30.920Z,46.02
2019-03-29T21:09:56.909Z,46.05
2019-03-29T21:12:23.082Z,46.02
2019-03-29T21:14:48.972Z,46.01
2019-03-29T21:17:14.849Z,45.93
2019-03-29T21:19:40.918Z,46.03
2019-03-29T21:22:06.818Z,46.12
2019-03-29T21:24:32.838Z,46.14
2019-03-29T21:26:58.978Z,46.19
2019-03-29T21:29:24.966Z,46.22
2019-03-29T21:31:50.979Z,46.20
2019-03-29T21:34:16.999Z,46.26
2019-03-29T21:36:44.801Z,46.34
2019-03-29T21:39:13.776Z,46.36
2019-03-29T21:41:39.910Z,46.45
2019-03-29T21:44:05.899Z,46.52
2019-03-29T21:46:31.819Z,46.51
2019-03-29T21:48:57.849Z,46.59
2019-03-29T21:51:23.721Z,46.66
2019-03-29T21:53:49.617Z,46.61
2019-03-29T21:56:15.579Z,46.59
2019-03-29T21:58:41.460Z,46.56
2019-03-29T22:01:07.465Z,46.53
2019-03-29T22:03:33.471Z,46.65
2019-03-29T22:05:59.410Z,46.73
2019-03-29T22:08:25.577Z,46.62
2019-03-29T22:10:51.636Z,46.59
2019-03-29T22:13:17.519Z,46.60
2019-03-29T22:15:43.378Z,46.66
2019-03-29T22:18:09.441Z,46.68
2019-03-29T22:20:35.562Z,46.80
2019-03-29T22:23:01.539Z,46.83
2019-03-29T22:25:28.131Z,46.82
2019-03-29T22:27:54.070Z,46.85
2019-03-29T22:30:20.060Z,46.92
2019-03-29T22:32:46.161Z,46.86
2019-03-29T22:35:12.117Z,46.94
2019-03-29T22:37:37.962Z,46.96
2019-03-29T22:40:05.848Z,46.96
2019-03-29T22:42:31.692Z,46.98
2019-03-29T22:44:57.671Z,46.89
2019-03-29T22:47:23.719Z,46.94
2019-03-29T22:49:49.555Z,46.92
2019-03-29T22:52:15.421Z,46.87
2019-03-29T22:54:41.468Z,46.93
2019-03-29T22:57:07.330Z,46.92
2019-03-29T22:59:33.236Z,47.07
2019-03-29T23:01:59.237Z,47.09
2019-03-29T23:04:25.509Z,47.10
2019-03-29T23:06:51.450Z,47.13
2019-03-29T23:09:17.637Z,47.23
2019-03-29T23:11:43.601Z,47.25
2019-03-29T23:14:09.494Z,47.35
2019-03-29T23:16:35.475Z,47.39
2019-03-29T23:19:06.822Z,47.36
2019-03-29T23:21:29.073Z,47.40
2019-03-29T23:23:55.183Z,47.41
2019-03-29T23:26:21.040Z,47.38
2019-03-29T23:28:47.171Z,47.36
2019-03-29T23:31:13.224Z,47.39
2019-03-29T23:33:39.092Z,47.39
2019-03-29T23:36:05.053Z,47.43
2019-03-29T23:38:31.199Z,47.54
2019-03-29T23:40:57.070Z,47.55
2019-03-29T23:43:22.915Z,47.50
2019-03-29T23:45:48.990Z,47.52
2019-03-29T23:48:14.814Z,47.53
2019-03-29T23:50:40.691Z,47.56
2019-03-29T23:53:06.759Z,47.53
2019-03-29T23:55:32.645Z,47.57
2019-03-29T23:57:58.488Z,47.58
